Bellvue, Texas
Current Conditions -  °F | °C
As of 9:35 AM on Saturday 22 Nov 2014 (Local Time) from K11R Reporting Station
Scattered Clouds Scattered Clouds  
Wind Chill: 65°   Ceiling: Unl
Heat Index: 65°   Visibility: 10mi
Dew Point: 63°   Wind: 10mph
Humidity: 90%   Direction: 130°SE
Pressure: 30.04"   Gusts: NA
Location:  29.9944°N, 96.2595°W
Report Text: K11R 221535Z AUTO 13009KT 10SM SCT009 19/17 A3004 RMK AO2 LTG DSNT W AND NW T01860170
Loading
Personal Weather Stations






























Interactive Weather Map New forecast layout! Learn more

10-Day Weather Forecast

Advertisements
Track Severe Weather on mobile